Time;durP1;ratioP1;P1;durP2;ratioP2;P2;SDS_P1;SDS_P2;PMS_P1;PMS_P2;Temp;Humidity;BMP_temperature;BMP_pressure;BME280_temperature;BME280_humidity;BME280_pressure;Samples;Min_cycle;Max_cycle;Signal;HPM_P1;HPM_P2
2022/01/05 00:02:07;;;;;;;;;10.25;8.00;;;;;20.63;40.73;99908.75;6318892;22;47250;-76
2022/01/05 00:04:33;;;;;;;;;7.50;6.50;;;;;20.65;40.50;99911.31;6345710;22;45371;-75
2022/01/05 00:06:58;;;;;;;;;12.75;9.25;;;;;20.64;40.61;99915.75;6346317;22;45350;-75
2022/01/05 00:09:24;;;;;;;;;7.75;7.75;;;;;20.68;40.26;99921.81;6373991;22;45539;-77
2022/01/05 00:11:49;;;;;;;;;6.75;6.75;;;;;20.64;40.37;99920.22;6373011;22;56514;-77
2022/01/05 00:14:15;;;;;;;;;10.25;7.50;;;;;20.68;40.10;99935.91;6344580;22;59227;-77
2022/01/05 00:16:40;;;;;;;;;9.75;7.00;;;;;20.65;39.76;99928.09;6345330;22;45395;-77
2022/01/05 00:19:05;;;;;;;;;7.50;6.50;;;;;20.64;39.92;99934.31;6373752;22;49541;-76
2022/01/05 00:21:31;;;;;;;;;7.75;5.75;;;;;20.64;40.02;99936.97;6345779;22;46022;-76
2022/01/05 00:23:56;;;;;;;;;7.50;6.25;;;;;20.61;39.82;99929.16;6318886;22;57615;-77
2022/01/05 00:26:22;;;;;;;;;7.50;6.50;;;;;20.56;40.40;99934.66;6318671;22;51727;-77
2022/01/05 00:28:47;;;;;;;;;8.00;8.00;;;;;20.60;40.22;99936.25;6374235;22;45272;-77
2022/01/05 00:31:12;;;;;;;;;10.25;7.00;;;;;20.56;39.88;99932.00;6346130;22;45333;-76
2022/01/05 00:33:38;;;;;;;;;8.75;8.75;;;;;20.56;40.08;99931.16;6345162;22;63286;-77
2022/01/05 00:36:06;;;;;;;;;8.00;7.00;;;;;20.57;39.97;99936.38;6374131;22;45084;-77
2022/01/05 00:38:31;;;;;;;;;10.00;8.50;;;;;20.57;39.76;99936.38;6373803;22;45400;-77
2022/01/05 00:40:56;;;;;;;;;5.50;5.00;;;;;20.50;40.43;99934.97;6318815;22;46153;-77
2022/01/05 00:43:22;;;;;;;;;8.00;8.00;;;;;20.52;39.93;99949.00;6371919;22;45265;-77
2022/01/05 00:45:47;;;;;;;;;8.50;7.50;;;;;20.49;40.23;99951.75;6344579;22;56159;-77
2022/01/05 00:48:13;;;;;;;;;7.25;7.25;;;;;20.46;40.28;99943.97;6319843;22;45321;-77
2022/01/05 00:50:38;;;;;;;;;7.00;7.00;;;;;20.45;39.81;99958.16;6318607;22;47699;-77
2022/01/05 00:53:03;;;;;;;;;9.50;9.00;;;;;20.44;40.64;99951.13;6345809;22;45203;-77
2022/01/05 00:55:29;;;;;;;;;8.50;7.25;;;;;20.49;40.49;99972.09;6319830;22;45238;-76
2022/01/05 00:57:54;;;;;;;;;8.25;8.25;;;;;20.47;39.83;99960.72;6345395;22;45326;-77
2022/01/05 01:00:20;;;;;;;;;7.75;7.75;;;;;20.45;39.94;99965.22;6373897;22;46022;-77
2022/01/05 01:02:45;;;;;;;;;6.75;6.75;;;;;20.45;39.85;99975.84;6346198;22;45462;-77
2022/01/05 01:05:13;;;;;;;;;7.50;6.75;;;;;20.43;40.23;99969.72;6345199;22;58572;-77
2022/01/05 01:07:38;;;;;;;;;5.75;5.75;;;;;20.42;39.78;99973.28;6319958;22;45867;-76
2022/01/05 01:10:04;;;;;;;;;9.25;8.00;;;;;20.37;39.91;99973.47;6318721;22;46076;-77
2022/01/05 01:12:30;;;;;;;;;10.25;7.75;;;;;20.40;40.44;99980.44;6372970;22;45184;-77
2022/01/05 01:14:55;;;;;;;;;11.25;9.00;;;;;20.37;40.08;99977.91;6319122;22;45171;-76
2022/01/05 01:17:22;;;;;;;;;8.25;7.00;;;;;20.39;40.30;99986.66;6373988;22;45357;-77
2022/01/05 01:19:47;;;;;;;;;7.75;7.75;;;;;20.37;40.07;99993.81;6344923;22;47888;-77
2022/01/05 01:22:13;;;;;;;;;6.75;6.75;;;;;20.36;39.50;99992.97;6319952;22;45413;-77
2022/01/05 01:24:39;;;;;;;;;8.00;5.50;;;;;20.36;40.13;100005.34;6319310;22;45304;-78
2022/01/05 01:27:04;;;;;;;;;7.00;6.25;;;;;20.34;40.24;100002.78;6320289;22;45326;-77
2022/01/05 01:29:29;;;;;;;;;7.75;5.50;;;;;20.33;40.48;100007.22;6373744;22;45444;-75
2022/01/05 01:31:55;;;;;;;;;7.25;6.75;;;;;20.32;40.68;100005.47;6345760;22;45368;-76
2022/01/05 01:34:20;;;;;;;;;9.00;7.50;;;;;20.34;40.52;100013.38;6318923;22;45432;-75
2022/01/05 01:36:46;;;;;;;;;9.50;7.00;;;;;20.32;40.62;100016.06;6373429;22;45225;-75
2022/01/05 01:39:11;;;;;;;;;10.00;7.00;;;;;20.32;40.62;100018.72;6318391;22;52005;-75
2022/01/05 01:41:37;;;;;;;;;10.50;8.50;;;;;20.29;40.92;100018.00;6318708;22;45675;-75
2022/01/05 01:44:02;;;;;;;;;6.00;6.00;;;;;20.29;40.29;100021.50;6345306;22;45324;-75
2022/01/05 01:46:28;;;;;;;;;7.25;6.50;;;;;20.27;40.36;100019.84;6373810;22;45293;-75
2022/01/05 01:48:53;;;;;;;;;7.75;7.75;;;;;20.28;40.54;100032.19;6345462;22;46194;-75
2022/01/05 01:51:18;;;;;;;;;5.25;5.25;;;;;20.26;40.23;100037.56;6344545;22;57693;-75
2022/01/05 01:53:44;;;;;;;;;6.25;5.75;;;;;20.26;40.10;100034.91;6373399;22;45169;-75
2022/01/05 01:56:10;;;;;;;;;6.75;5.25;;;;;20.27;39.82;100044.56;6372778;22;54966;-75
2022/01/05 01:58:35;;;;;;;;;8.25;7.25;;;;;20.27;40.04;100044.56;6318033;22;45492;-76
2022/01/05 02:01:01;;;;;;;;;4.25;3.00;;;;;20.28;40.17;100056.03;6318998;22;45196;-75
2022/01/05 02:03:26;;;;;;;;;8.25;5.25;;;;;20.28;40.21;100058.69;6318312;22;45192;-75
2022/01/05 02:05:52;;;;;;;;;6.00;6.00;;;;;20.27;39.79;100063.13;6345034;22;45188;-75
2022/01/05 02:08:20;;;;;;;;;7.00;5.50;;;;;20.26;40.27;100074.66;6373158;22;45120;-75
2022/01/05 02:10:46;;;;;;;;;7.25;7.00;;;;;20.26;40.44;100077.28;6372780;22;45278;-75
2022/01/05 02:13:11;;;;;;;;;7.00;7.00;;;;;20.25;40.37;100078.22;6319291;22;45300;-75
2022/01/05 02:15:39;;;;;;;;;7.50;6.75;;;;;20.22;40.33;100072.16;6344709;22;45532;-75
2022/01/05 02:20:30;;;;;;;;;5.50;5.00;;;;;20.25;40.42;100094.13;6373180;22;45140;-75
2022/01/05 02:22:55;;;;;;;;;6.25;4.25;;;;;20.25;40.35;100096.78;6318371;22;45190;-75
2022/01/05 02:25:21;;;;;;;;;7.25;5.75;;;;;20.21;40.47;100086.34;6344804;22;45382;-75
2022/01/05 02:27:47;;;;;;;;;6.50;5.25;;;;;20.23;40.37;100092.44;6344749;22;45319;-75
2022/01/05 02:30:14;;;;;;;;;7.00;5.00;;;;;20.18;40.32;100086.47;6345464;22;45249;-75
2022/01/05 02:32:39;;;;;;;;;8.00;6.50;;;;;20.17;40.36;100096.22;6373129;22;45335;-75
2022/01/05 02:35:05;;;;;;;;;6.00;5.00;;;;;20.17;40.22;100088.28;6373077;22;45344;-75
2022/01/05 02:37:30;;;;;;;;;7.25;6.00;;;;;20.19;40.65;100099.66;6319102;22;47061;-75
2022/01/05 02:39:56;;;;;;;;;7.00;5.75;;;;;20.18;40.88;100099.72;6373637;22;54366;-75
2022/01/05 02:42:26;;;;;;;;;6.25;6.25;;;;;20.18;39.82;100097.09;6346856;22;45811;-75
2022/01/05 02:44:51;;;;;;;;;7.00;5.00;;;;;20.11;40.92;100085.88;6320354;22;45183;-75
2022/01/05 02:47:16;;;;;;;;;5.00;5.00;;;;;20.14;40.35;100101.63;6374086;22;53296;-75
2022/01/05 02:49:42;;;;;;;;;8.00;6.25;;;;;20.16;40.60;100099.81;6345930;22;45241;-75
2022/01/05 02:52:07;;;;;;;;;7.50;7.50;;;;;20.12;40.55;100098.19;6374504;22;45254;-75
2022/01/05 02:54:33;;;;;;;;;8.75;5.50;;;;;20.10;40.42;100085.94;6345472;22;45252;-75
2022/01/05 02:56:58;;;;;;;;;5.50;5.50;;;;;20.10;40.24;100088.59;6345815;22;53538;-75
2022/01/05 02:59:23;;;;;;;;;7.00;6.00;;;;;20.13;40.50;100107.00;6374204;22;46569;-74
2022/01/05 03:01:49;;;;;;;;;4.25;4.25;;;;;20.10;40.00;100102.69;6373842;22;50208;-75
2022/01/05 03:04:14;;;;;;;;;5.50;4.00;;;;;20.10;39.99;100113.28;6319897;22;45323;-75
2022/01/05 03:06:40;;;;;;;;;5.75;5.75;;;;;20.06;40.04;100103.72;6318668;22;51497;-75
2022/01/05 03:09:05;;;;;;;;;5.25;5.25;;;;;20.06;40.51;100116.97;6319747;22;45342;-75
2022/01/05 03:11:30;;;;;;;;;6.50;4.00;;;;;20.11;40.31;100127.38;6319285;22;50817;-75
2022/01/05 03:13:56;;;;;;;;;4.00;4.00;;;;;20.11;39.95;100127.38;6319323;22;50391;-74
2022/01/05 03:16:21;;;;;;;;;6.00;3.00;;;;;20.08;40.38;100128.38;6345504;22;47136;-74
2022/01/05 03:18:47;;;;;;;;;5.00;4.00;;;;;20.06;40.32;100135.50;6345252;22;45305;-74
2022/01/05 03:21:12;;;;;;;;;4.00;4.00;;;;;20.05;40.33;100136.44;6319401;22;45280;-73
2022/01/05 03:23:38;;;;;;;;;5.25;3.50;;;;;20.04;40.33;100134.72;6319219;22;45528;-74
2022/01/05 03:26:03;;;;;;;;;7.00;5.75;;;;;19.99;40.58;100131.41;6319186;22;47053;-74
2022/01/05 03:28:29;;;;;;;;;4.50;4.25;;;;;19.99;40.89;100134.03;6345346;22;45213;-74
2022/01/05 03:30:55;;;;;;;;;6.00;6.00;;;;;20.00;40.30;100141.94;6320013;22;45306;-74
2022/01/05 03:33:21;;;;;;;;;5.00;4.00;;;;;19.99;40.43;100149.94;6346139;22;45158;-74
2022/01/05 03:35:47;;;;;;;;;6.75;4.75;;;;;19.95;40.75;100149.19;6319136;22;47185;-74
2022/01/05 03:38:15;;;;;;;;;6.75;5.25;;;;;19.91;40.75;100152.88;6319264;22;45125;-74
2022/01/05 03:40:41;;;;;;;;;5.00;5.00;;;;;19.91;41.17;100162.63;6346192;22;45361;-74
2022/01/05 03:43:06;;;;;;;;;4.25;3.75;;;;;19.91;40.88;100165.25;6345372;22;45374;-75
2022/01/05 03:45:32;;;;;;;;;5.25;4.50;;;;;19.91;40.51;100173.22;6346099;22;45909;-74
2022/01/05 03:47:58;;;;;;;;;6.50;6.50;;;;;19.90;40.76;100176.78;6345365;22;45227;-75
2022/01/05 03:50:23;;;;;;;;;5.75;5.00;;;;;19.88;40.42;100178.59;6374073;22;45163;-75
2022/01/05 03:52:49;;;;;;;;;5.75;4.50;;;;;19.90;40.45;100190.03;6374376;22;45269;-74
2022/01/05 03:55:14;;;;;;;;;5.75;5.00;;;;;19.86;40.36;100189.25;6345402;22;45850;-75
2022/01/05 03:57:39;;;;;;;;;4.50;4.25;;;;;19.88;40.55;100194.50;6345515;22;45163;-75
2022/01/05 04:00:05;;;;;;;;;5.50;4.00;;;;;19.87;41.11;100192.75;6319459;22;45882;-75
2022/01/05 04:02:31;;;;;;;;;6.25;5.25;;;;;19.89;40.91;100196.22;6345496;22;45218;-75
2022/01/05 04:04:56;;;;;;;;;5.25;3.75;;;;;19.88;40.61;100186.53;6319489;22;45272;-75
2022/01/05 04:07:22;;;;;;;;;5.25;4.50;;;;;19.87;40.61;100195.41;6319019;22;58824;-75
2022/01/05 04:09:47;;;;;;;;;4.75;4.00;;;;;19.84;40.64;100190.25;6319779;22;45912;-75
2022/01/05 04:12:13;;;;;;;;;6.00;4.00;;;;;19.87;40.62;100203.34;6318725;22;45199;-75
2022/01/05 04:14:38;;;;;;;;;5.75;4.50;;;;;19.86;41.08;100202.50;6319676;22;45412;-75
2022/01/05 04:17:07;;;;;;;;;8.50;6.00;;;;;19.88;40.94;100202.44;6374179;22;45183;-75
2022/01/05 04:19:32;;;;;;;;;4.00;4.00;;;;;19.86;40.77;100212.22;6318144;22;58459;-75
2022/01/05 04:21:57;;;;;;;;;7.00;5.00;;;;;19.84;40.97;100208.78;6374045;22;45184;-75
2022/01/05 04:24:23;;;;;;;;;4.00;4.00;;;;;19.84;41.13;100206.13;6319122;22;53090;-75
2022/01/05 04:26:49;;;;;;;;;6.50;6.50;;;;;19.83;41.17;100209.69;6319086;22;45232;-74
2022/01/05 04:29:14;;;;;;;;;6.25;4.00;;;;;19.84;40.94;100219.38;6319296;22;45838;-75
2022/01/05 04:31:39;;;;;;;;;5.50;4.50;;;;;19.82;41.37;100222.09;6319479;22;45189;-75
2022/01/05 04:34:05;;;;;;;;;4.75;4.75;;;;;19.81;41.28;100219.47;6319645;22;45512;-75
2022/01/05 04:36:30;;;;;;;;;6.25;4.00;;;;;19.83;41.36;100220.31;6319183;22;45076;-74
2022/01/05 04:38:56;;;;;;;;;8.25;5.50;;;;;19.84;41.39;100222.03;6345516;22;45710;-75
2022/01/05 04:41:21;;;;;;;;;4.75;4.00;;;;;19.86;41.72;100217.53;6318809;22;45392;-75
2022/01/05 04:43:49;;;;;;;;;5.00;4.00;;;;;19.85;41.01;100211.38;6319049;22;47219;-75
2022/01/05 04:46:14;;;;;;;;;6.25;5.50;;;;;19.87;41.22;100224.53;6346257;22;45333;-75
2022/01/05 04:48:41;;;;;;;;;4.25;4.00;;;;;19.86;40.81;100233.41;6319156;22;53094;-74
2022/01/05 04:51:07;;;;;;;;;4.75;4.75;;;;;19.84;40.93;100224.66;6319092;22;45429;-74
2022/01/05 04:53:32;;;;;;;;;4.25;3.25;;;;;19.86;41.30;100234.28;6319136;22;48197;-75
2022/01/05 04:55:58;;;;;;;;;3.25;3.25;;;;;19.86;41.55;100236.94;6318736;22;45271;-75
2022/01/05 04:58:23;;;;;;;;;3.00;3.00;;;;;19.87;40.68;100241.28;6319150;22;45738;-75
2022/01/05 05:00:49;;;;;;;;;4.00;4.00;;;;;19.87;40.74;100238.66;6373567;22;45335;-75
2022/01/05 05:03:14;;;;;;;;;3.00;3.00;;;;;19.86;40.84;100234.28;6319329;22;45294;-75
2022/01/05 05:05:39;;;;;;;;;6.25;5.00;;;;;19.85;40.90;100242.28;6319242;22;45231;-75
2022/01/05 05:08:05;;;;;;;;;7.25;4.75;;;;;19.85;41.15;100240.50;6344958;22;53760;-74
2022/01/05 05:10:30;;;;;;;;;5.25;3.00;;;;;19.85;41.08;100243.16;6344320;22;45146;-75
2022/01/05 05:12:56;;;;;;;;;4.00;3.00;;;;;19.83;40.99;100244.13;6344823;22;48239;-75
2022/01/05 05:15:21;;;;;;;;;4.00;4.00;;;;;19.87;41.13;100258.97;6344850;22;45522;-75
2022/01/05 05:17:47;;;;;;;;;4.25;4.25;;;;;19.86;41.20;100254.59;6345343;22;51008;-75
2022/01/05 05:20:12;;;;;;;;;4.75;3.00;;;;;19.86;41.08;100258.13;6344871;22;45182;-74
2022/01/05 05:22:38;;;;;;;;;4.50;4.50;;;;;19.86;41.12;100263.41;6345206;22;47134;-74
2022/01/05 05:25:04;;;;;;;;;3.75;3.25;;;;;19.86;41.67;100270.50;6373031;22;56092;-74
2022/01/05 05:27:29;;;;;;;;;5.75;4.00;;;;;19.87;41.12;100272.22;6319384;22;45283;-75
2022/01/05 05:29:55;;;;;;;;;5.25;4.50;;;;;19.86;40.99;100273.13;6318692;22;45497;-75
2022/01/05 05:32:20;;;;;;;;;3.00;3.00;;;;;19.85;41.00;100274.94;6319072;22;46871;-74
2022/01/05 05:34:46;;;;;;;;;4.00;4.00;;;;;19.84;41.33;100278.50;6344823;22;45210;-74
2022/01/05 05:37:11;;;;;;;;;5.00;5.00;;;;;19.85;41.01;100279.34;6373355;22;48801;-75
2022/01/05 05:39:36;;;;;;;;;4.00;4.00;;;;;19.86;41.10;100289.88;6373759;22;45206;-75
2022/01/05 05:42:02;;;;;;;;;5.00;3.25;;;;;19.87;40.73;100290.75;6319204;22;46511;-74
2022/01/05 05:44:28;;;;;;;;;3.50;3.00;;;;;19.86;40.91;100289.88;6318529;22;45339;-75
2022/01/05 05:46:53;;;;;;;;;2.00;2.00;;;;;19.85;40.82;100282.00;6318604;22;50237;-75
2022/01/05 05:49:18;;;;;;;;;4.00;3.00;;;;;19.90;40.95;100294.16;6373331;22;45080;-75
2022/01/05 05:51:44;;;;;;;;;3.75;3.75;;;;;19.92;41.18;100304.72;6373196;22;49397;-75
2022/01/05 05:54:09;;;;;;;;;4.25;3.00;;;;;19.92;40.95;100296.75;6318404;22;45521;-75
2022/01/05 05:56:35;;;;;;;;;2.50;2.50;;;;;19.91;40.74;100302.97;6318777;22;45137;-75
2022/01/05 05:59:00;;;;;;;;;8.75;5.25;;;;;19.97;43.36;100310.69;6347218;22;45545;-72
2022/01/05 06:01:27;;;;;;;;;4.25;3.00;;;;;20.09;43.75;100312.91;6373172;22;48455;-74
2022/01/05 06:03:52;;;;;;;;;4.50;3.75;;;;;20.27;44.20;100316.66;6318581;22;45802;-84
2022/01/05 06:06:18;;;;;;;;;6.00;3.00;;;;;20.40;45.29;100304.66;6373016;22;45156;-72
2022/01/05 06:08:43;;;;;;;;;4.75;4.75;;;;;20.54;45.53;100309.47;6372582;22;53914;-76
2022/01/05 06:11:09;;;;;;;;;7.00;4.25;;;;;20.71;46.61;100319.41;6343579;22;45502;-75
2022/01/05 06:13:34;;;;;;;;;7.25;4.25;;;;;20.82;46.52;100315.41;6343806;22;60885;-74
2022/01/05 06:15:59;;;;;;;;;3.25;3.00;;;;;20.88;46.41;100312.53;6344476;22;45277;-75
2022/01/05 06:18:25;;;;;;;;;6.25;5.50;;;;;21.02;46.25;100317.25;6343985;22;52888;-72
2022/01/05 06:20:50;;;;;;;;;4.75;4.75;;;;;21.12;46.41;100325.72;6317599;22;61163;-77
2022/01/05 06:23:16;;;;;;;;;7.00;6.00;;;;;21.18;46.31;100328.13;6318133;22;45405;-75
2022/01/05 06:25:41;;;;;;;;;3.50;3.25;;;;;21.27;46.10;100333.06;6344733;22;48755;-72
2022/01/05 06:28:11;;;;;;;;;4.00;3.00;;;;;21.33;46.10;100332.81;6345078;22;45261;-73
2022/01/05 06:30:40;;;;;;;;;4.75;4.75;;;;;21.36;45.93;100331.81;6344201;22;46367;-72
2022/01/05 06:33:05;;;;;;;;;3.25;3.00;;;;;21.36;45.70;100322.06;6318383;22;45227;-72
2022/01/05 06:35:31;;;;;;;;;5.00;4.50;;;;;21.37;45.65;100337.09;6318285;22;45344;-75
2022/01/05 06:37:56;;;;;;;;;2.50;2.50;;;;;21.38;45.42;100343.28;6344095;22;45294;-73
2022/01/05 06:40:22;;;;;;;;;5.00;3.25;;;;;21.41;45.69;100345.78;6318352;22;46252;-72
2022/01/05 06:42:48;;;;;;;;;3.50;3.50;;;;;21.45;45.69;100350.03;6370943;22;45285;-72
2022/01/05 06:45:13;;;;;;;;;6.25;4.25;;;;;21.50;45.84;100357.81;6318760;22;45343;-72
2022/01/05 06:47:38;;;;;;;;;4.25;3.75;;;;;21.45;45.56;100350.88;6318730;22;45118;-73
2022/01/05 06:50:04;;;;;;;;;3.00;3.00;;;;;21.50;45.63;100365.78;6343987;22;47481;-73
2022/01/05 06:52:30;;;;;;;;;4.25;3.25;;;;;21.51;45.27;100371.03;6372563;22;45060;-73
2022/01/05 06:54:55;;;;;;;;;5.00;3.00;;;;;21.54;45.75;100370.03;6344451;22;45314;-74
2022/01/05 06:57:21;;;;;;;;;4.75;4.75;;;;;21.53;45.45;100370.94;6344990;22;45251;-73
2022/01/05 06:59:46;;;;;;;;;3.75;3.75;;;;;21.55;45.22;100377.09;6317631;22;50848;-73
2022/01/05 07:02:12;;;;;;;;;4.00;4.00;;;;;21.55;45.33;100382.41;6370782;22;45210;-73
2022/01/05 07:04:37;;;;;;;;;7.25;3.50;;;;;21.57;44.98;100381.41;6317949;22;45183;-71
2022/01/05 07:07:03;;;;;;;;;3.50;3.00;;;;;21.57;44.88;100380.53;6318037;22;45303;-71
2022/01/05 07:09:28;;;;;;;;;4.25;4.25;;;;;21.56;44.95;100382.31;6371977;22;47041;-71
2022/01/05 07:11:54;;;;;;;;;6.00;3.50;;;;;21.55;44.78;100385.06;6343325;22;57733;-71
2022/01/05 07:14:19;;;;;;;;;8.75;6.00;;;;;21.54;45.15;100385.94;6344590;22;45274;-71
2022/01/05 07:16:45;;;;;;;;;6.00;5.00;;;;;21.53;44.89;100386.88;6344220;22;45468;-71
2022/01/05 07:19:10;;;;;;;;;5.00;3.75;;;;;21.54;45.02;100391.25;6316688;22;62044;-71
2022/01/05 07:21:35;;;;;;;;;5.00;5.00;;;;;21.53;44.68;100392.19;6316858;22;59246;-71
2022/01/05 07:24:01;;;;;;;;;7.25;5.00;;;;;21.53;44.78;100395.72;6319871;22;45300;-71
2022/01/05 07:26:27;;;;;;;;;6.00;5.25;;;;;21.53;44.66;100405.47;6319203;22;45509;-71
2022/01/05 07:28:53;;;;;;;;;3.00;3.00;;;;;21.51;44.53;100413.50;6319431;22;48151;-71
2022/01/05 07:31:19;;;;;;;;;4.25;3.75;;;;;21.51;44.42;100416.16;6319308;22;45516;-72
2022/01/05 07:33:45;;;;;;;;;4.50;3.50;;;;;21.50;44.31;100416.22;6313475;22;45137;-76
2022/01/05 07:36:10;;;;;;;;;7.75;4.25;;;;;21.50;44.41;100418.88;6316133;22;45772;-75
2022/01/05 07:38:35;;;;;;;;;4.00;4.00;;;;;21.50;44.39;100424.19;6293165;22;49522;-75
2022/01/05 07:41:01;;;;;;;;;5.50;5.00;;;;;21.48;43.82;100418.94;6345088;22;45335;-75
2022/01/05 07:43:26;;;;;;;;;5.75;4.75;;;;;21.50;44.21;100427.72;6319653;22;45201;-74
2022/01/05 07:45:52;;;;;;;;;5.50;4.75;;;;;21.45;44.51;100419.91;6313692;22;45281;-74
2022/01/05 07:48:17;;;;;;;;;5.00;5.00;;;;;21.49;44.25;100431.31;6314611;22;45328;-73
2022/01/05 07:50:43;;;;;;;;;5.50;4.00;;;;;21.51;43.69;100431.22;6344721;22;45173;-74
2022/01/05 07:53:10;;;;;;;;;4.50;4.00;;;;;21.50;44.09;100438.34;6316951;22;45536;-74
2022/01/05 07:55:37;;;;;;;;;4.00;3.50;;;;;21.53;43.70;100440.00;6318243;22;46279;-73
2022/01/05 07:58:06;;;;;;;;;4.25;4.00;;;;;21.50;43.83;100437.47;6345380;22;46024;-73
2022/01/05 08:00:31;;;;;;;;;4.25;4.25;;;;;21.53;43.93;100443.50;6346578;22;45258;-73
2022/01/05 08:02:57;;;;;;;;;4.00;4.00;;;;;21.54;43.90;100450.53;6319284;22;45177;-75
2022/01/05 08:05:23;;;;;;;;;6.50;4.75;;;;;21.49;43.73;100441.06;6344975;22;45238;-75
2022/01/05 08:07:48;;;;;;;;;4.25;4.25;;;;;21.49;44.13;100436.63;6373934;22;46104;-75
2022/01/05 08:10:14;;;;;;;;;6.25;3.75;;;;;21.51;43.89;100456.00;6344760;22;45881;-73
2022/01/05 08:12:41;;;;;;;;;6.50;4.75;;;;;21.58;43.49;100469.91;6344890;22;45306;-73
2022/01/05 08:15:08;;;;;;;;;5.25;3.75;;;;;21.58;43.64;100468.09;6346244;22;45441;-75
2022/01/05 08:17:33;;;;;;;;;7.00;4.00;;;;;21.59;43.76;100466.31;6373488;22;45467;-75
2022/01/05 08:20:01;;;;;;;;;4.50;4.50;;;;;21.55;43.79;100465.59;6318500;22;45141;-72
2022/01/05 08:22:29;;;;;;;;;5.50;4.75;;;;;21.59;43.32;100464.50;6373837;22;45480;-75
2022/01/05 08:24:54;;;;;;;;;6.75;5.25;;;;;21.59;43.55;100485.75;6346054;22;45283;-75
2022/01/05 08:27:20;;;;;;;;;7.00;5.00;;;;;21.58;43.44;100483.16;6372791;22;61835;-75
2022/01/05 08:29:46;;;;;;;;;6.00;5.50;;;;;21.58;43.73;100486.69;6345231;22;45392;-75
2022/01/05 08:32:14;;;;;;;;;11.50;6.75;;;;;21.54;43.55;100476.25;6345420;22;45236;-76
2022/01/05 08:34:40;;;;;;;;;4.75;4.00;;;;;21.55;43.50;100484.16;6318606;22;45190;-77
2022/01/05 08:37:05;;;;;;;;;5.00;5.00;;;;;21.58;43.90;100485.81;6345624;22;45195;-75
2022/01/05 08:39:31;;;;;;;;;6.75;6.00;;;;;21.57;43.20;100492.06;6345315;22;45207;-73
2022/01/05 08:41:56;;;;;;;;;6.50;5.50;;;;;21.59;42.86;100500.84;6373424;22;56529;-76
2022/01/05 08:44:21;;;;;;;;;8.25;5.00;;;;;21.59;42.78;100500.84;6338037;22;45453;-76
2022/01/05 08:46:47;;;;;;;;;4.50;4.00;;;;;21.60;42.95;100489.28;6338210;22;48452;-74
2022/01/05 08:49:14;;;;;;;;;6.25;4.75;;;;;21.59;43.29;100492.88;6344023;22;52713;-76
2022/01/05 08:51:39;;;;;;;;;8.25;5.75;;;;;21.62;43.30;100501.56;6345873;22;45428;-75
2022/01/05 08:54:06;;;;;;;;;5.50;4.25;;;;;21.65;43.01;100495.28;6344642;22;45253;-79
2022/01/05 08:56:31;;;;;;;;;5.75;5.50;;;;;21.62;43.23;100490.06;6318401;22;47946;-79
2022/01/05 08:58:56;;;;;;;;;5.50;5.50;;;;;21.65;43.12;100492.63;6318976;22;45362;-78
2022/01/05 09:01:23;;;;;;;;;7.00;4.75;;;;;21.68;43.43;100501.31;6344539;22;45263;-78
2022/01/05 09:03:48;;;;;;;;;8.00;6.00;;;;;21.70;43.82;100498.59;6342031;22;45678;-72
2022/01/05 09:06:14;;;;;;;;;9.50;5.75;;;;;21.71;44.03;100503.84;6372164;22;45905;-80
2022/01/05 09:08:51;;;;;;;;;7.50;6.00;;;;;21.79;44.37;100514.16;6346899;22;45224;-82
2022/01/05 09:11:16;;;;;;;;;6.25;5.25;;;;;21.82;44.11;100513.19;6320410;22;45417;-75
2022/01/05 09:13:42;;;;;;;;;8.00;5.00;;;;;21.83;44.27;100514.94;6312784;22;45545;-91
2022/01/05 09:16:08;;;;;;;;;5.00;5.00;;;;;21.82;43.98;100506.09;6323680;22;46820;-91
2022/01/05 09:18:33;;;;;;;;;5.50;3.00;;;;;21.85;44.05;100505.94;6321868;22;45144;-88
2022/01/05 09:20:59;;;;;;;;;4.25;4.25;;;;;21.89;43.93;100520.84;6348831;22;45548;-92
2022/01/05 09:23:27;;;;;;;;;5.25;5.00;;;;;21.92;43.77;100520.72;6324964;22;45341;-91
2022/01/05 09:25:53;;;;;;;;;9.00;7.00;;;;;21.98;43.58;100531.09;6323980;22;46910;-90
2022/01/05 09:28:18;;;;;;;;;8.25;7.25;;;;;22.00;43.86;100517.75;6319291;22;45882;-83
2022/01/05 09:30:46;;;;;;;;;7.75;5.75;;;;;22.05;43.65;100521.06;6344978;22;45256;-85
2022/01/05 09:33:14;;;;;;;;;8.75;6.50;;;;;22.07;42.98;100526.34;6322025;22;45609;-93
2022/01/05 09:36:01;;;;;;;;;8.00;5.25;;;;;22.06;43.48;100521.94;6319192;22;47226;-87
2022/01/05 09:41:56;;;;;;;;;8.25;5.75;;;;;22.12;42.91;100537.66;6325336;22;45264;-85
2022/01/05 09:44:07;;;;;;;;;7.00;5.00;;;;;22.14;42.79;100549.94;6343907;22;45280;-90
2022/01/05 09:46:41;;;;;;;;;8.00;6.00;;;;;22.19;42.46;100549.78;6317844;22;47162;-84
2022/01/05 09:49:10;;;;;;;;;9.25;5.75;;;;;22.21;42.33;100566.50;6342656;22;45239;-85
2022/01/05 09:51:41;;;;;;;;;5.75;5.75;;;;;22.22;42.83;100561.13;6345312;22;45258;-86
2022/01/05 09:54:06;;;;;;;;;7.25;6.00;;;;;22.23;42.28;100562.00;6318763;22;45495;-83
2022/01/05 09:56:33;;;;;;;;;8.25;7.25;;;;;22.22;42.22;100570.91;6319006;22;45375;-81
2022/01/05 09:59:01;;;;;;;;;8.50;6.25;;;;;22.21;42.27;100563.84;6320213;22;45577;-85
2022/01/05 10:01:31;;;;;;;;;11.00;8.00;;;;;22.14;40.59;100565.03;6322690;22;45223;-80
2022/01/05 10:03:58;;;;;;;;;11.00;10.00;;;;;21.98;38.84;100570.09;6320905;22;45546;-82
2022/01/05 10:06:23;;;;;;;;;11.75;10.75;;;;;21.81;39.04;100578.75;6318099;22;47027;-77
2022/01/05 10:08:49;;;;;;;;;8.00;7.75;;;;;21.66;39.60;100587.31;6375645;22;45206;-86
2022/01/05 10:11:14;;;;;;;;;12.25;8.75;;;;;21.59;39.10;100586.69;6319350;22;45215;-85
2022/01/05 10:13:40;;;;;;;;;15.75;9.75;;;;;21.49;38.50;100590.63;6319584;22;45138;-78
2022/01/05 10:16:05;;;;;;;;;10.25;7.75;;;;;21.37;38.73;100593.72;6344795;22;45263;-85
2022/01/05 10:18:41;;;;;;;;;7.50;7.25;;;;;21.31;38.86;100583.34;6318755;22;45251;-85
2022/01/05 10:21:07;;;;;;;;;8.50;5.00;;;;;21.20;38.39;100588.13;6319174;22;45319;-83
2022/01/05 10:23:33;;;;;;;;;10.75;8.00;;;;;21.14;38.40;100597.22;6343655;22;45533;-88
2022/01/05 10:26:19;;;;;;;;;8.75;7.00;;;;;21.08;38.17;100611.56;6347864;22;46278;-85
2022/01/05 10:28:45;;;;;;;;;10.00;7.50;;;;;21.02;38.07;100610.91;6345037;22;45408;-81
2022/01/05 10:31:19;;;;;;;;;8.25;5.00;;;;;20.88;37.76;100601.69;6292763;22;45305;-86
2022/01/05 10:33:48;;;;;;;;;7.00;6.25;;;;;20.89;39.20;100603.41;6311789;22;45487;-82
2022/01/05 10:36:13;;;;;;;;;9.00;6.00;;;;;20.84;38.15;100613.28;6343632;22;47231;-81
2022/01/05 10:38:50;;;;;;;;;9.50;7.50;;;;;20.76;37.85;100610.06;6369540;22;45176;-82
2022/01/05 10:41:22;;;;;;;;;9.25;6.75;;;;;20.77;39.19;100617.09;6312377;22;45631;-81
2022/01/05 10:46:55;;;;;;;;;4.00;3.75;;;;;20.68;37.73;100612.13;6340765;22;45611;-84
2022/01/05 10:49:39;;;;;;;;;9.25;8.00;;;;;20.67;37.96;100628.94;6343252;22;45287;-85
2022/01/05 10:52:35;;;;;;;;;11.00;6.00;;;;;20.64;38.45;100617.56;6320358;22;45363;-83
2022/01/05 10:55:38;;;;;;;;;7.50;6.75;;;;;20.68;38.35;100625.38;6318226;22;45298;-86
2022/01/05 10:58:04;;;;;;;;;7.75;6.75;;;;;20.66;39.03;100613.94;6328851;22;46422;-76
2022/01/05 11:00:56;;;;;;;;;10.25;6.00;;;;;20.69;38.91;100623.59;6349541;22;45178;-92
2022/01/05 11:03:39;;;;;;;;;5.00;4.75;;;;;20.73;38.95;100625.22;6350050;22;45326;-82
2022/01/05 11:06:18;;;;;;;;;6.50;6.00;;;;;20.67;38.34;100614.81;6346598;22;45429;-86
2022/01/05 11:09:06;;;;;;;;;7.75;4.75;;;;;20.72;38.39;100631.44;6322517;22;46795;-82
2022/01/05 11:11:49;;;;;;;;;;;;;;;;;;;;;
2022/01/05 11:14:51;;;;;;;;;6.00;6.00;;;;;20.65;38.01;100625.47;6375843;22;68965;-81
2022/01/05 11:17:16;;;;;;;;;7.50;5.00;;;;;20.64;37.98;100630.84;6328548;22;45491;-77
2022/01/05 11:19:41;;;;;;;;;8.75;5.00;;;;;20.61;38.38;100623.84;6318484;22;45311;-79
2022/01/05 11:22:13;;;;;;;;;7.00;6.00;;;;;20.60;37.69;100619.47;6345662;22;51251;-79
2022/01/05 11:24:48;;;;;;;;;5.25;5.00;;;;;20.52;37.85;100611.78;6347469;22;45243;-79
2022/01/05 11:27:20;;;;;;;;;6.25;4.50;;;;;20.58;37.84;100626.59;6374295;22;45354;-81
2022/01/05 11:29:46;;;;;;;;;7.00;6.00;;;;;20.55;37.57;100632.88;6342008;22;46116;-83
2022/01/05 11:32:13;;;;;;;;;6.00;6.00;;;;;20.54;37.63;100635.59;6312370;22;45796;-80
2022/01/05 11:34:38;;;;;;;;;6.75;5.00;;;;;20.53;37.92;100629.41;6317610;22;45416;-81